sensor_id;sensor_type;location;lat;lon;timestamp;pressure;altitude;pressure_sealevel;temperature;humidity
69306;BME280;56427;51.580;4.656;2022-07-23T00:00:07;101898.91;;;16.34;100.00
69306;BME280;56427;51.580;4.656;2022-07-23T00:02:33;101899.75;;;16.06;100.00
69306;BME280;56427;51.580;4.656;2022-07-23T00:04:58;101898.50;;;16.00;100.00
69306;BME280;56427;51.580;4.656;2022-07-23T00:07:24;101902.78;;;16.01;100.00
69306;BME280;56427;51.580;4.656;2022-07-23T00:09:49;101889.69;;;15.91;100.00
69306;BME280;56427;51.580;4.656;2022-07-23T00:12:14;101901.38;;;16.07;100.00
69306;BME280;56427;51.580;4.656;2022-07-23T00:14:39;101898.63;;;15.89;100.00
69306;BME280;56427;51.580;4.656;2022-07-23T00:17:05;101905.06;;;15.75;100.00
69306;BME280;56427;51.580;4.656;2022-07-23T00:19:30;101907.19;;;15.91;100.00
69306;BME280;56427;51.580;4.656;2022-07-23T00:21:55;101902.28;;;15.67;100.00
69306;BME280;56427;51.580;4.656;2022-07-23T00:24:21;101906.50;;;15.79;100.00
69306;BME280;56427;51.580;4.656;2022-07-23T00:26:46;101904.34;;;15.63;100.00
69306;BME280;56427;51.580;4.656;2022-07-23T00:29:11;101904.50;;;15.71;100.00
69306;BME280;56427;51.580;4.656;2022-07-23T00:31:37;101900.44;;;15.98;100.00
69306;BME280;56427;51.580;4.656;2022-07-23T00:34:02;101897.25;;;15.94;100.00
69306;BME280;56427;51.580;4.656;2022-07-23T00:36:28;101895.59;;;15.93;100.00
69306;BME280;56427;51.580;4.656;2022-07-23T00:38:53;101897.13;;;15.96;100.00
69306;BME280;56427;51.580;4.656;2022-07-23T00:41:19;101888.16;;;15.79;100.00
69306;BME280;56427;51.580;4.656;2022-07-23T00:43:44;101893.22;;;15.80;100.00
69306;BME280;56427;51.580;4.656;2022-07-23T00:46:10;101890.16;;;15.75;100.00
69306;BME280;56427;51.580;4.656;2022-07-23T00:48:35;101885.78;;;15.66;100.00
69306;BME280;56427;51.580;4.656;2022-07-23T00:51:01;101883.06;;;15.77;100.00
69306;BME280;56427;51.580;4.656;2022-07-23T00:53:26;101874.75;;;15.62;100.00
69306;BME280;56427;51.580;4.656;2022-07-23T00:55:53;101867.16;;;15.59;100.00
69306;BME280;56427;51.580;4.656;2022-07-23T00:58:18;101868.09;;;15.49;100.00
69306;BME280;56427;51.580;4.656;2022-07-23T01:00:44;101859.41;;;15.38;100.00
69306;BME280;56427;51.580;4.656;2022-07-23T01:03:09;101854.59;;;15.43;100.00
69306;BME280;56427;51.580;4.656;2022-07-23T01:05:34;101851.06;;;15.54;100.00
69306;BME280;56427;51.580;4.656;2022-07-23T01:08:00;101853.81;;;15.53;100.00
69306;BME280;56427;51.580;4.656;2022-07-23T01:10:25;101856.09;;;15.26;100.00
69306;BME280;56427;51.580;4.656;2022-07-23T01:13:05;101860.66;;;15.44;100.00
69306;BME280;56427;51.580;4.656;2022-07-23T01:15:32;101868.75;;;15.41;100.00
69306;BME280;56427;51.580;4.656;2022-07-23T01:17:58;101868.91;;;15.30;100.00
69306;BME280;56427;51.580;4.656;2022-07-23T01:20:24;101861.91;;;15.40;100.00
69306;BME280;56427;51.580;4.656;2022-07-23T01:22:50;101863.03;;;15.16;100.00
69306;BME280;56427;51.580;4.656;2022-07-23T01:25:15;101875.25;;;15.06;100.00
69306;BME280;56427;51.580;4.656;2022-07-23T01:27:41;101873.88;;;15.02;100.00
69306;BME280;56427;51.580;4.656;2022-07-23T01:30:07;101866.56;;;14.96;100.00
69306;BME280;56427;51.580;4.656;2022-07-23T01:32:32;101867.88;;;14.80;100.00
69306;BME280;56427;51.580;4.656;2022-07-23T01:34:58;101873.34;;;14.77;100.00
69306;BME280;56427;51.580;4.656;2022-07-23T01:37:23;101868.53;;;15.03;100.00
69306;BME280;56427;51.580;4.656;2022-07-23T01:39:48;101865.69;;;14.85;100.00
69306;BME280;56427;51.580;4.656;2022-07-23T01:42:14;101865.41;;;14.79;100.00
69306;BME280;56427;51.580;4.656;2022-07-23T01:44:39;101866.59;;;14.75;100.00
69306;BME280;56427;51.580;4.656;2022-07-23T01:47:04;101862.19;;;14.75;100.00
69306;BME280;56427;51.580;4.656;2022-07-23T01:49:30;101864.03;;;14.84;100.00
69306;BME280;56427;51.580;4.656;2022-07-23T01:51:55;101869.50;;;14.81;100.00
69306;BME280;56427;51.580;4.656;2022-07-23T01:54:28;101867.78;;;14.91;100.00
69306;BME280;56427;51.580;4.656;2022-07-23T01:56:54;101861.59;;;14.93;100.00
69306;BME280;56427;51.580;4.656;2022-07-23T01:59:19;101869.19;;;14.96;100.00
69306;BME280;56427;51.580;4.656;2022-07-23T02:01:45;101873.81;;;15.23;100.00
69306;BME280;56427;51.580;4.656;2022-07-23T02:04:11;101867.97;;;15.09;100.00
69306;BME280;56427;51.580;4.656;2022-07-23T02:06:36;101873.28;;;14.88;100.00
69306;BME280;56427;51.580;4.656;2022-07-23T02:09:02;101868.31;;;14.85;100.00
69306;BME280;56427;51.580;4.656;2022-07-23T02:11:27;101862.41;;;15.34;100.00
69306;BME280;56427;51.580;4.656;2022-07-23T02:13:52;101857.38;;;15.11;100.00
69306;BME280;56427;51.580;4.656;2022-07-23T02:16:18;101859.19;;;15.11;100.00
69306;BME280;56427;51.580;4.656;2022-07-23T02:18:43;101858.34;;;15.00;100.00
69306;BME280;56427;51.580;4.656;2022-07-23T02:21:08;101861.97;;;14.88;100.00
69306;BME280;56427;51.580;4.656;2022-07-23T02:23:34;101859.88;;;14.82;100.00
69306;BME280;56427;51.580;4.656;2022-07-23T02:25:59;101866.78;;;14.83;100.00
69306;BME280;56427;51.580;4.656;2022-07-23T02:28:24;101871.22;;;14.92;100.00
69306;BME280;56427;51.580;4.656;2022-07-23T02:30:50;101864.28;;;14.81;100.00
69306;BME280;56427;51.580;4.656;2022-07-23T02:33:16;101863.25;;;14.94;100.00
69306;BME280;56427;51.580;4.656;2022-07-23T02:35:42;101860.91;;;14.90;100.00
69306;BME280;56427;51.580;4.656;2022-07-23T02:38:07;101864.97;;;14.83;100.00
69306;BME280;56427;51.580;4.656;2022-07-23T02:40:32;101865.41;;;14.79;100.00
69306;BME280;56427;51.580;4.656;2022-07-23T02:42:57;101868.31;;;14.85;100.00
69306;BME280;56427;51.580;4.656;2022-07-23T02:45:23;101870.50;;;14.80;100.00
69306;BME280;56427;51.580;4.656;2022-07-23T02:47:48;101873.69;;;14.63;100.00
69306;BME280;56427;51.580;4.656;2022-07-23T02:50:14;101871.19;;;14.82;100.00
69306;BME280;56427;51.580;4.656;2022-07-23T02:52:39;101868.69;;;14.81;100.00
69306;BME280;56427;51.580;4.656;2022-07-23T02:55:05;101877.13;;;14.63;100.00
69306;BME280;56427;51.580;4.656;2022-07-23T02:57:30;101870.81;;;14.66;100.00
69306;BME280;56427;51.580;4.656;2022-07-23T02:59:56;101869.72;;;14.47;100.00
69306;BME280;56427;51.580;4.656;2022-07-23T03:02:21;101873.56;;;14.64;100.00
69306;BME280;56427;51.580;4.656;2022-07-23T03:04:46;101866.91;;;14.60;100.00
69306;BME280;56427;51.580;4.656;2022-07-23T03:07:12;101875.78;;;14.69;100.00
69306;BME280;56427;51.580;4.656;2022-07-23T03:09:37;101875.97;;;14.77;100.00
69306;BME280;56427;51.580;4.656;2022-07-23T03:12:03;101868.66;;;14.71;100.00
69306;BME280;56427;51.580;4.656;2022-07-23T03:14:28;101875.00;;;14.78;100.00
69306;BME280;56427;51.580;4.656;2022-07-23T03:16:53;101883.88;;;14.66;100.00
69306;BME280;56427;51.580;4.656;2022-07-23T03:19:19;101881.16;;;14.67;100.00
69306;BME280;56427;51.580;4.656;2022-07-23T03:21:45;101883.75;;;14.67;100.00
69306;BME280;56427;51.580;4.656;2022-07-23T03:24:10;101880.03;;;14.70;100.00
69306;BME280;56427;51.580;4.656;2022-07-23T03:26:36;101881.53;;;14.63;100.00
69306;BME280;56427;51.580;4.656;2022-07-23T03:29:02;101886.59;;;14.43;100.00
69306;BME280;56427;51.580;4.656;2022-07-23T03:31:29;101882.72;;;14.38;100.00
69306;BME280;56427;51.580;4.656;2022-07-23T03:33:55;101891.66;;;14.24;100.00
69306;BME280;56427;51.580;4.656;2022-07-23T03:36:20;101886.16;;;14.06;100.00
69306;BME280;56427;51.580;4.656;2022-07-23T03:38:46;101893.50;;;14.12;100.00
69306;BME280;56427;51.580;4.656;2022-07-23T03:41:11;101903.28;;;13.98;100.00
69306;BME280;56427;51.580;4.656;2022-07-23T03:43:36;101896.31;;;13.88;100.00
69306;BME280;56427;51.580;4.656;2022-07-23T03:46:02;101899.66;;;13.90;100.00
69306;BME280;56427;51.580;4.656;2022-07-23T03:48:27;101894.56;;;13.88;100.00
69306;BME280;56427;51.580;4.656;2022-07-23T03:50:52;101893.94;;;13.85;100.00
69306;BME280;56427;51.580;4.656;2022-07-23T03:53:18;101891.72;;;13.80;100.00
69306;BME280;56427;51.580;4.656;2022-07-23T03:55:43;101903.94;;;13.68;100.00
69306;BME280;56427;51.580;4.656;2022-07-23T03:58:08;101908.91;;;13.71;100.00
69306;BME280;56427;51.580;4.656;2022-07-23T04:00:34;101907.63;;;13.77;100.00
69306;BME280;56427;51.580;4.656;2022-07-23T04:03:00;101911.84;;;13.89;100.00
69306;BME280;56427;51.580;4.656;2022-07-23T04:05:25;101911.16;;;13.87;100.00
69306;BME280;56427;51.580;4.656;2022-07-23T04:07:50;101914.66;;;13.97;100.00
69306;BME280;56427;51.580;4.656;2022-07-23T04:10:16;101909.00;;;13.92;100.00
69306;BME280;56427;51.580;4.656;2022-07-23T04:12:41;101912.53;;;13.91;100.00
69306;BME280;56427;51.580;4.656;2022-07-23T04:15:07;101914.81;;;13.85;100.00
69306;BME280;56427;51.580;4.656;2022-07-23T04:17:33;101914.56;;;13.88;100.00
69306;BME280;56427;51.580;4.656;2022-07-23T04:19:59;101905.44;;;13.93;100.00
69306;BME280;56427;51.580;4.656;2022-07-23T04:22:24;101907.84;;;13.85;100.00
69306;BME280;56427;51.580;4.656;2022-07-23T04:24:49;101907.25;;;14.14;100.00
69306;BME280;56427;51.580;4.656;2022-07-23T04:27:15;101908.31;;;14.23;100.00
69306;BME280;56427;51.580;4.656;2022-07-23T04:29:41;101913.22;;;14.58;100.00
69306;BME280;56427;51.580;4.656;2022-07-23T04:32:06;101908.50;;;14.31;100.00
69306;BME280;56427;51.580;4.656;2022-07-23T04:34:31;101901.75;;;14.28;100.00
69306;BME280;56427;51.580;4.656;2022-07-23T04:36:57;101909.75;;;14.15;100.00
69306;BME280;56427;51.580;4.656;2022-07-23T04:39:22;101911.66;;;14.13;100.00
69306;BME280;56427;51.580;4.656;2022-07-23T04:41:47;101912.25;;;14.38;100.00
69306;BME280;56427;51.580;4.656;2022-07-23T04:44:13;101910.66;;;14.26;100.00
69306;BME280;56427;51.580;4.656;2022-07-23T04:46:38;101918.56;;;14.57;100.00
69306;BME280;56427;51.580;4.656;2022-07-23T04:49:03;101921.84;;;15.22;100.00
69306;BME280;56427;51.580;4.656;2022-07-23T04:51:29;101927.25;;;15.30;100.00
69306;BME280;56427;51.580;4.656;2022-07-23T04:53:55;101917.94;;;16.36;100.00
69306;BME280;56427;51.580;4.656;2022-07-23T04:56:20;101917.69;;;16.97;99.60
69306;BME280;56427;51.580;4.656;2022-07-23T04:58:45;101928.63;;;18.03;92.85
69306;BME280;56427;51.580;4.656;2022-07-23T05:01:11;101923.56;;;18.28;88.14
69306;BME280;56427;51.580;4.656;2022-07-23T05:03:36;101923.69;;;17.72;89.76
69306;BME280;56427;51.580;4.656;2022-07-23T05:06:01;101929.13;;;18.69;87.43
69306;BME280;56427;51.580;4.656;2022-07-23T05:08:28;101938.63;;;18.88;86.54
69306;BME280;56427;51.580;4.656;2022-07-23T05:10:53;101925.72;;;19.45;81.49
69306;BME280;56427;51.580;4.656;2022-07-23T05:13:19;101922.28;;;20.04;80.45
69306;BME280;56427;51.580;4.656;2022-07-23T05:15:45;101933.78;;;20.19;78.98
69306;BME280;56427;51.580;4.656;2022-07-23T05:18:11;101927.81;;;19.76;81.48
69306;BME280;56427;51.580;4.656;2022-07-23T05:20:37;101931.31;;;20.51;76.00
69306;BME280;56427;51.580;4.656;2022-07-23T05:23:02;101929.84;;;20.65;75.04
69306;BME280;56427;51.580;4.656;2022-07-23T05:25:28;101926.72;;;20.12;76.14
69306;BME280;56427;51.580;4.656;2022-07-23T05:27:53;101931.06;;;19.70;79.91
69306;BME280;56427;51.580;4.656;2022-07-23T05:30:18;101940.66;;;19.28;81.26
69306;BME280;56427;51.580;4.656;2022-07-23T05:32:44;101940.75;;;19.53;80.23
69306;BME280;56427;51.580;4.656;2022-07-23T05:35:09;101934.47;;;19.97;79.27
69306;BME280;56427;51.580;4.656;2022-07-23T05:37:35;101942.00;;;20.00;78.91
69306;BME280;56427;51.580;4.656;2022-07-23T05:40:04;101945.06;;;19.62;79.77
69306;BME280;56427;51.580;4.656;2022-07-23T05:42:32;101943.72;;;19.16;81.99
69306;BME280;56427;51.580;4.656;2022-07-23T05:44:57;101945.97;;;19.96;79.77
69306;BME280;56427;51.580;4.656;2022-07-23T05:47:23;101948.63;;;20.45;77.26
69306;BME280;56427;51.580;4.656;2022-07-23T05:49:48;101948.94;;;20.50;75.60
69306;BME280;56427;51.580;4.656;2022-07-23T05:52:13;101951.91;;;19.98;78.91
69306;BME280;56427;51.580;4.656;2022-07-23T05:54:38;101949.28;;;20.64;75.70
69306;BME280;56427;51.580;4.656;2022-07-23T05:57:04;101940.50;;;19.81;78.93
69306;BME280;56427;51.580;4.656;2022-07-23T05:59:30;101948.16;;;20.25;77.74
69306;BME280;56427;51.580;4.656;2022-07-23T06:01:55;101945.03;;;20.21;76.57
69306;BME280;56427;51.580;4.656;2022-07-23T06:04:20;101937.09;;;20.46;77.36
69306;BME280;56427;51.580;4.656;2022-07-23T06:06:46;101937.59;;;20.58;75.18
69306;BME280;56427;51.580;4.656;2022-07-23T06:09:11;101937.94;;;20.14;76.57
69306;BME280;56427;51.580;4.656;2022-07-23T06:11:39;101941.84;;;20.51;76.27
69306;BME280;56427;51.580;4.656;2022-07-23T06:14:04;101948.28;;;21.29;75.42
69306;BME280;56427;51.580;4.656;2022-07-23T06:16:29;101951.38;;;20.93;74.76
69306;BME280;56427;51.580;4.656;2022-07-23T06:18:55;101954.13;;;21.16;74.32
69306;BME280;56427;51.580;4.656;2022-07-23T06:21:20;101956.22;;;21.68;72.13
69306;BME280;56427;51.580;4.656;2022-07-23T06:23:45;101949.44;;;22.44;70.06
69306;BME280;56427;51.580;4.656;2022-07-23T06:26:11;101948.03;;;22.10;70.94
69306;BME280;56427;51.580;4.656;2022-07-23T06:28:36;101951.41;;;22.41;69.38
69306;BME280;56427;51.580;4.656;2022-07-23T06:31:01;101949.53;;;21.81;72.72
69306;BME280;56427;51.580;4.656;2022-07-23T06:33:27;101946.69;;;22.37;69.70
69306;BME280;56427;51.580;4.656;2022-07-23T06:35:52;101952.22;;;22.95;65.71
69306;BME280;56427;51.580;4.656;2022-07-23T06:38:17;101947.91;;;22.64;67.34
69306;BME280;56427;51.580;4.656;2022-07-23T06:40:43;101955.47;;;23.42;63.90
69306;BME280;56427;51.580;4.656;2022-07-23T06:43:09;101958.94;;;22.68;66.94
69306;BME280;56427;51.580;4.656;2022-07-23T06:45:35;101959.97;;;22.96;65.87
69306;BME280;56427;51.580;4.656;2022-07-23T06:48:00;101954.78;;;22.88;64.76
69306;BME280;56427;51.580;4.656;2022-07-23T06:50:27;101963.47;;;23.12;63.63
69306;BME280;56427;51.580;4.656;2022-07-23T06:52:53;101957.69;;;22.93;66.11
69306;BME280;56427;51.580;4.656;2022-07-23T06:55:18;101956.84;;;24.11;61.77
69306;BME280;56427;51.580;4.656;2022-07-23T06:57:43;101968.75;;;23.63;62.52
69306;BME280;56427;51.580;4.656;2022-07-23T07:00:09;101954.59;;;23.20;61.79
69306;BME280;56427;51.580;4.656;2022-07-23T07:02:35;101965.84;;;23.95;59.93
69306;BME280;56427;51.580;4.656;2022-07-23T07:05:00;101962.56;;;23.93;59.74
69306;BME280;56427;51.580;4.656;2022-07-23T07:07:26;101964.63;;;23.76;60.72
69306;BME280;56427;51.580;4.656;2022-07-23T07:09:51;101964.25;;;23.79;59.61
69306;BME280;56427;51.580;4.656;2022-07-23T07:12:16;101969.53;;;23.57;60.39
69306;BME280;56427;51.580;4.656;2022-07-23T07:14:41;101959.00;;;22.45;63.74
69306;BME280;56427;51.580;4.656;2022-07-23T07:17:07;101968.63;;;23.86;59.97
69306;BME280;56427;51.580;4.656;2022-07-23T07:19:32;101966.22;;;24.56;56.58
69306;BME280;56427;51.580;4.656;2022-07-23T07:21:57;101965.69;;;24.68;56.65
69306;BME280;56427;51.580;4.656;2022-07-23T07:24:23;101958.72;;;25.43;55.98
69306;BME280;56427;51.580;4.656;2022-07-23T07:26:48;101967.69;;;24.94;56.06
69306;BME280;56427;51.580;4.656;2022-07-23T07:29:13;101965.28;;;23.99;57.30
69306;BME280;56427;51.580;4.656;2022-07-23T07:31:39;101964.72;;;24.25;56.85
69306;BME280;56427;51.580;4.656;2022-07-23T07:34:04;101970.59;;;23.99;58.51
69306;BME280;56427;51.580;4.656;2022-07-23T07:36:30;101971.16;;;24.94;54.49
69306;BME280;56427;51.580;4.656;2022-07-23T07:38:55;101973.13;;;23.34;59.97
69306;BME280;56427;51.580;4.656;2022-07-23T07:41:20;101969.53;;;24.15;57.99
69306;BME280;56427;51.580;4.656;2022-07-23T07:43:49;101976.31;;;25.09;54.63
69306;BME280;56427;51.580;4.656;2022-07-23T07:46:15;101971.59;;;24.41;54.96
69306;BME280;56427;51.580;4.656;2022-07-23T07:48:40;101975.66;;;24.44;55.85
69306;BME280;56427;51.580;4.656;2022-07-23T07:51:06;101973.41;;;24.19;56.60
69306;BME280;56427;51.580;4.656;2022-07-23T07:53:31;101970.72;;;24.91;56.00
69306;BME280;56427;51.580;4.656;2022-07-23T07:55:57;101983.28;;;25.10;53.52
69306;BME280;56427;51.580;4.656;2022-07-23T07:58:22;101982.13;;;24.56;55.15
69306;BME280;56427;51.580;4.656;2022-07-23T08:00:47;101985.59;;;25.20;53.22
69306;BME280;56427;51.580;4.656;2022-07-23T08:03:13;101984.03;;;24.97;53.98
69306;BME280;56427;51.580;4.656;2022-07-23T08:05:38;101989.25;;;25.19;52.63
69306;BME280;56427;51.580;4.656;2022-07-23T08:08:04;101991.91;;;25.67;51.94
69306;BME280;56427;51.580;4.656;2022-07-23T08:10:29;101995.31;;;25.41;53.21
69306;BME280;56427;51.580;4.656;2022-07-23T08:12:57;102000.31;;;25.64;54.04
69306;BME280;56427;51.580;4.656;2022-07-23T08:15:26;102004.75;;;25.15;54.07
69306;BME280;56427;51.580;4.656;2022-07-23T08:17:52;102008.25;;;24.31;55.61
69306;BME280;56427;51.580;4.656;2022-07-23T08:20:20;102005.69;;;25.01;55.26
69306;BME280;56427;51.580;4.656;2022-07-23T08:25:26;101994.22;;;25.90;49.89
69306;BME280;56427;51.580;4.656;2022-07-23T08:27:52;102002.88;;;25.09;54.18
69306;BME280;56427;51.580;4.656;2022-07-23T08:30:18;101992.66;;;26.70;51.04
69306;BME280;56427;51.580;4.656;2022-07-23T08:32:51;101993.66;;;26.55;49.95
69306;BME280;56427;51.580;4.656;2022-07-23T08:35:18;102004.47;;;26.00;51.89
69306;BME280;56427;51.580;4.656;2022-07-23T08:37:43;102000.84;;;26.55;49.95
69306;BME280;56427;51.580;4.656;2022-07-23T08:40:09;101997.75;;;25.98;51.69
69306;BME280;56427;51.580;4.656;2022-07-23T08:42:35;101987.66;;;25.86;50.72
69306;BME280;56427;51.580;4.656;2022-07-23T08:45:02;101992.25;;;26.79;49.63
69306;BME280;56427;51.580;4.656;2022-07-23T08:47:28;101988.16;;;26.30;49.82
69306;BME280;56427;51.580;4.656;2022-07-23T08:49:56;101984.34;;;25.23;52.43
69306;BME280;56427;51.580;4.656;2022-07-23T08:52:22;101989.53;;;24.96;52.19
69306;BME280;56427;51.580;4.656;2022-07-23T08:54:48;101993.81;;;24.90;54.63
69306;BME280;56427;51.580;4.656;2022-07-23T08:57:14;101986.91;;;26.39;49.55
69306;BME280;56427;51.580;4.656;2022-07-23T08:59:40;101996.56;;;26.67;48.34
69306;BME280;56427;51.580;4.656;2022-07-23T09:02:05;102001.84;;;26.60;50.27
69306;BME280;56427;51.580;4.656;2022-07-23T09:04:31;101998.97;;;26.02;48.93
69306;BME280;56427;51.580;4.656;2022-07-23T09:06:57;102005.94;;;26.03;49.42
69306;BME280;56427;51.580;4.656;2022-07-23T09:09:23;102003.69;;;25.10;51.42
69306;BME280;56427;51.580;4.656;2022-07-23T09:12:03;102007.41;;;25.57;49.88
69306;BME280;56427;51.580;4.656;2022-07-23T09:14:44;102012.00;;;25.90;50.52
69306;BME280;56427;51.580;4.656;2022-07-23T09:17:17;102010.19;;;25.90;49.66
69306;BME280;56427;51.580;4.656;2022-07-23T09:19:44;102012.31;;;26.35;50.28
69306;BME280;56427;51.580;4.656;2022-07-23T09:22:20;102006.16;;;26.35;47.54
69306;BME280;56427;51.580;4.656;2022-07-23T09:25:11;102009.81;;;26.00;48.66
69306;BME280;56427;51.580;4.656;2022-07-23T09:30:14;102004.75;;;26.32;48.54
69306;BME280;56427;51.580;4.656;2022-07-23T09:32:40;102000.94;;;25.73;48.97
69306;BME280;56427;51.580;4.656;2022-07-23T09:35:06;102003.66;;;25.31;50.18
69306;BME280;56427;51.580;4.656;2022-07-23T09:37:32;102002.06;;;25.09;51.46
69306;BME280;56427;51.580;4.656;2022-07-23T09:40:09;101997.09;;;24.64;53.05
69306;BME280;56427;51.580;4.656;2022-07-23T09:42:54;102002.88;;;26.19;49.16
69306;BME280;56427;51.580;4.656;2022-07-23T09:45:20;102002.06;;;26.79;47.81
69306;BME280;56427;51.580;4.656;2022-07-23T09:47:46;101999.41;;;26.52;47.56
69306;BME280;56427;51.580;4.656;2022-07-23T09:50:11;102006.97;;;26.55;47.07
69306;BME280;56427;51.580;4.656;2022-07-23T09:52:47;101999.81;;;25.47;50.73
69306;BME280;56427;51.580;4.656;2022-07-23T09:55:14;102000.22;;;26.53;48.38
69306;BME280;56427;51.580;4.656;2022-07-23T09:57:41;102007.41;;;26.25;48.16
69306;BME280;56427;51.580;4.656;2022-07-23T10:00:08;101995.25;;;27.03;47.11
69306;BME280;56427;51.580;4.656;2022-07-23T10:02:35;102000.22;;;26.79;47.35
69306;BME280;56427;51.580;4.656;2022-07-23T10:05:05;102000.75;;;25.81;48.44
69306;BME280;56427;51.580;4.656;2022-07-23T10:07:38;101998.03;;;25.55;50.31
69306;BME280;56427;51.580;4.656;2022-07-23T10:10:06;101999.31;;;25.92;52.15
69306;BME280;56427;51.580;4.656;2022-07-23T10:12:32;102007.59;;;26.11;49.41
69306;BME280;56427;51.580;4.656;2022-07-23T10:15:18;102006.56;;;26.78;49.39
69306;BME280;56427;51.580;4.656;2022-07-23T10:17:44;101998.22;;;25.53;49.60
69306;BME280;56427;51.580;4.656;2022-07-23T10:20:09;102004.06;;;25.35;52.69
69306;BME280;56427;51.580;4.656;2022-07-23T10:22:37;102003.09;;;26.18;49.06
69306;BME280;56427;51.580;4.656;2022-07-23T10:25:12;102002.25;;;26.57;47.72
69306;BME280;56427;51.580;4.656;2022-07-23T10:30:41;102000.91;;;27.33;47.83
69306;BME280;56427;51.580;4.656;2022-07-23T10:36:04;101993.44;;;26.90;47.55
69306;BME280;56427;51.580;4.656;2022-07-23T10:38:58;102006.63;;;27.44;47.36
69306;BME280;56427;51.580;4.656;2022-07-23T10:41:38;102003.50;;;26.61;48.68
69306;BME280;56427;51.580;4.656;2022-07-23T10:44:11;102006.03;;;27.35;46.70
69306;BME280;56427;51.580;4.656;2022-07-23T10:47:06;102002.38;;;27.68;45.05
69306;BME280;56427;51.580;4.656;2022-07-23T10:49:34;102004.94;;;27.49;45.97
69306;BME280;56427;51.580;4.656;2022-07-23T10:52:27;102002.06;;;26.72;44.26
69306;BME280;56427;51.580;4.656;2022-07-23T10:54:56;101991.81;;;26.02;46.42
69306;BME280;56427;51.580;4.656;2022-07-23T10:57:27;101998.81;;;26.30;45.98
69306;BME280;56427;51.580;4.656;2022-07-23T11:02:41;101997.53;;;28.22;44.16
69306;BME280;56427;51.580;4.656;2022-07-23T11:05:13;101991.38;;;27.96;40.75
69306;BME280;56427;51.580;4.656;2022-07-23T11:10:33;101991.19;;;26.87;44.33
69306;BME280;56427;51.580;4.656;2022-07-23T11:34:46;101987.06;;;24.94;49.56
69306;BME280;56427;51.580;4.656;2022-07-23T11:37:47;101990.31;;;24.90;49.52
69306;BME280;56427;51.580;4.656;2022-07-23T11:40:13;101981.72;;;24.10;52.08
69306;BME280;56427;51.580;4.656;2022-07-23T11:42:51;101987.94;;;23.80;51.56
69306;BME280;56427;51.580;4.656;2022-07-23T11:45:17;101988.97;;;23.64;52.31
69306;BME280;56427;51.580;4.656;2022-07-23T11:47:42;101983.34;;;24.32;53.77
69306;BME280;56427;51.580;4.656;2022-07-23T11:50:08;101982.13;;;25.26;51.88
69306;BME280;56427;51.580;4.656;2022-07-23T11:52:33;101974.06;;;25.41;49.37
69306;BME280;56427;51.580;4.656;2022-07-23T11:55:01;101973.41;;;25.32;48.51
69306;BME280;56427;51.580;4.656;2022-07-23T11:57:30;101971.94;;;24.95;51.46
69306;BME280;56427;51.580;4.656;2022-07-23T12:00:01;101967.03;;;24.57;51.21
69306;BME280;56427;51.580;4.656;2022-07-23T12:02:27;101974.72;;;25.57;50.47
69306;BME280;56427;51.580;4.656;2022-07-23T12:04:53;101970.72;;;26.48;48.97
69306;BME280;56427;51.580;4.656;2022-07-23T12:07:34;101968.25;;;26.93;46.37
69306;BME280;56427;51.580;4.656;2022-07-23T12:10:09;101970.94;;;26.79;44.83
69306;BME280;56427;51.580;4.656;2022-07-23T12:12:37;101976.88;;;26.75;44.79
69306;BME280;56427;51.580;4.656;2022-07-23T12:15:04;101966.88;;;26.43;46.05
69306;BME280;56427;51.580;4.656;2022-07-23T12:17:32;101965.06;;;27.29;45.86
69306;BME280;56427;51.580;4.656;2022-07-23T12:19:58;101980.47;;;27.14;45.49
69306;BME280;56427;51.580;4.656;2022-07-23T12:22:26;101965.59;;;26.86;46.61
69306;BME280;56427;51.580;4.656;2022-07-23T12:25:03;101964.81;;;27.38;44.05
69306;BME280;56427;51.580;4.656;2022-07-23T12:27:30;101972.69;;;27.12;45.71
69306;BME280;56427;51.580;4.656;2022-07-23T12:29:56;101963.13;;;26.91;44.74
69306;BME280;56427;51.580;4.656;2022-07-23T12:32:25;101967.72;;;27.23;45.63
69306;BME280;56427;51.580;4.656;2022-07-23T12:35:05;101961.22;;;27.05;46.35
69306;BME280;56427;51.580;4.656;2022-07-23T12:37:39;101964.00;;;26.32;47.34
69306;BME280;56427;51.580;4.656;2022-07-23T12:40:29;101971.13;;;27.43;44.35
69306;BME280;56427;51.580;4.656;2022-07-23T12:45:23;101964.19;;;27.74;44.59
69306;BME280;56427;51.580;4.656;2022-07-23T12:48:00;101960.41;;;28.39;42.00
69306;BME280;56427;51.580;4.656;2022-07-23T12:56:00;101960.53;;;27.30;44.46
69306;BME280;56427;51.580;4.656;2022-07-23T12:58:26;101953.75;;;26.55;44.28
69306;BME280;56427;51.580;4.656;2022-07-23T13:00:59;101945.56;;;26.10;45.34
69306;BME280;56427;51.580;4.656;2022-07-23T13:03:36;101948.88;;;26.25;47.33
69306;BME280;56427;51.580;4.656;2022-07-23T13:06:03;101950.28;;;26.21;46.42
69306;BME280;56427;51.580;4.656;2022-07-23T13:08:30;101949.47;;;26.01;46.14
69306;BME280;56427;51.580;4.656;2022-07-23T13:10:57;101948.25;;;26.43;45.29
69306;BME280;56427;51.580;4.656;2022-07-23T13:13:24;101951.84;;;26.83;43.77
69306;BME280;56427;51.580;4.656;2022-07-23T13:15:51;101938.97;;;26.79;45.49
69306;BME280;56427;51.580;4.656;2022-07-23T13:18:17;101946.13;;;26.86;43.21
69306;BME280;56427;51.580;4.656;2022-07-23T13:20:47;101944.47;;;26.91;45.00
69306;BME280;56427;51.580;4.656;2022-07-23T13:23:13;101943.50;;;26.45;45.08
69306;BME280;56427;51.580;4.656;2022-07-23T13:25:39;101941.44;;;26.54;46.43
69306;BME280;56427;51.580;4.656;2022-07-23T13:28:04;101937.09;;;26.93;45.20
69306;BME280;56427;51.580;4.656;2022-07-23T13:30:30;101937.38;;;27.30;42.56